NWK1741 YPDN-YPPH
Flight info
| Callsign | NWK1741 |
|---|---|
| Flight time | 3h 44m |
| Altitude | 36000 |
| Route | HELLI6 HELLI J151 IRPOM DCT KU J72 ARG T63 BIDAP Q25 DALWU Q38 JULIM JULI8A |
| Aircraft | A319/M-SDE3FGHIRWY/LB1 |
Departure
| Time | 2026-05-05 01:10 |
|---|---|
| Airport | Darwin International Airport / RAAF Darwin (YPDN) |
Arrival
| Time | 2026-05-05 04:54 |
|---|---|
| Airport | Perth International Airport (YPPH) |
| Time | Latitude | Longitude | Altitude | Speed | Heading |
|---|---|---|---|---|---|
| 2026-05-05 00:52 | -12.40900 | 130.87789 | 93 ft | 0 kts | 21° |
| 2026-05-05 01:00 | -12.40904 | 130.87787 | 93 ft | 4 kts | 19° |
| 2026-05-05 01:00 | -12.40930 | 130.87781 | 94 ft | 4 kts | 1° |
| 2026-05-05 01:00 | -12.40956 | 130.87785 | 94 ft | 4 kts | 330° |
| 2026-05-05 01:01 | -12.40974 | 130.87802 | 95 ft | 4 kts | 294° |
| 2026-05-05 01:01 | -12.40979 | 130.87816 | 97 ft | 1 kts | 280° |
| 2026-05-05 01:03 | -12.40979 | 130.87814 | 97 ft | 2 kts | 280° |
| 2026-05-05 01:03 | -12.40968 | 130.87754 | 97 ft | 12 kts | 281° |
| 2026-05-05 01:04 | -12.40958 | 130.87662 | 93 ft | 13 kts | 258° |
| 2026-05-05 01:04 | -12.41089 | 130.87571 | 99 ft | 12 kts | 199° |
| 2026-05-05 01:04 | -12.41165 | 130.87545 | 101 ft | 11 kts | 199° |
| 2026-05-05 01:05 | -12.41249 | 130.87514 | 102 ft | 15 kts | 199° |
| 2026-05-05 01:05 | -12.41348 | 130.87479 | 103 ft | 15 kts | 196° |
| 2026-05-05 01:05 | -12.41447 | 130.87444 | 105 ft | 15 kts | 206° |
| 2026-05-05 01:05 | -12.41495 | 130.87357 | 106 ft | 14 kts | 265° |
| 2026-05-05 01:06 | -12.41469 | 130.87256 | 105 ft | 16 kts | 289° |
| 2026-05-05 01:06 | -12.41427 | 130.87131 | 103 ft | 20 kts | 289° |
| 2026-05-05 01:06 | -12.41379 | 130.86988 | 102 ft | 22 kts | 289° |
| 2026-05-05 01:06 | -12.41328 | 130.86838 | 102 ft | 23 kts | 289° |
| 2026-05-05 01:07 | -12.41276 | 130.86681 | 103 ft | 23 kts | 289° |
| 2026-05-05 01:07 | -12.41223 | 130.86528 | 105 ft | 21 kts | 297° |
| 2026-05-05 01:07 | -12.41114 | 130.86478 | 109 ft | 16 kts | 0° |
| 2026-05-05 01:07 | -12.41012 | 130.86511 | 111 ft | 16 kts | 19° |
| 2026-05-05 01:08 | -12.40956 | 130.86593 | 110 ft | 15 kts | 97° |
| 2026-05-05 01:08 | -12.40971 | 130.86629 | 107 ft | 0 kts | 109° |
| 2026-05-05 01:08 | -12.40971 | 130.86632 | 109 ft | 3 kts | 109° |
| 2026-05-05 01:09 | -12.41038 | 130.86827 | 104 ft | 58 kts | 109° |
| 2026-05-05 01:09 | -12.41231 | 130.87400 | 100 ft | 112 kts | 109° |
| 2026-05-05 01:09 | -12.41541 | 130.88315 | 95 ft | 160 kts | 109° |
| 2026-05-05 01:09 | -12.41942 | 130.89478 | 386 ft | 178 kts | 109° |
| 2026-05-05 01:10 | -12.42347 | 130.90675 | 1027 ft | 177 kts | 108° |
| 2026-05-05 01:10 | -12.42749 | 130.91890 | 1477 ft | 188 kts | 108° |
| 2026-05-05 01:10 | -12.43194 | 130.93236 | 1698 ft | 211 kts | 108° |
| 2026-05-05 01:10 | -12.43696 | 130.94746 | 1990 ft | 236 kts | 108° |
| 2026-05-05 01:11 | -12.44242 | 130.96385 | 2616 ft | 247 kts | 108° |
| 2026-05-05 01:11 | -12.44797 | 130.98049 | 3500 ft | 247 kts | 107° |
| 2026-05-05 01:11 | -12.45355 | 130.99718 | 4411 ft | 247 kts | 108° |
| 2026-05-05 01:11 | -12.45914 | 131.01388 | 5253 ft | 249 kts | 108° |
| 2026-05-05 01:12 | -12.46817 | 131.02907 | 6005 ft | 258 kts | 136° |
| 2026-05-05 01:12 | -12.48479 | 131.03674 | 6701 ft | 275 kts | 170° |
| 2026-05-05 01:12 | -12.50414 | 131.03458 | 7413 ft | 286 kts | 193° |
| 2026-05-05 01:12 | -12.52287 | 131.02723 | 8190 ft | 290 kts | 202° |
| 2026-05-05 01:13 | -12.54107 | 131.01811 | 8965 ft | 293 kts | 205° |
| 2026-05-05 01:13 | -12.55931 | 131.00870 | 9738 ft | 294 kts | 205° |
| 2026-05-05 01:13 | -12.57726 | 130.99855 | 10420 ft | 297 kts | 216° |
| 2026-05-05 01:13 | -12.59177 | 130.98337 | 11056 ft | 302 kts | 235° |
| 2026-05-05 01:14 | -12.60099 | 130.96402 | 11699 ft | 304 kts | 255° |
| 2026-05-05 01:14 | -12.60601 | 130.94260 | 11919 ft | 324 kts | 258° |
| 2026-05-05 01:14 | -12.61098 | 130.91939 | 12048 ft | 344 kts | 258° |
| 2026-05-05 01:14 | -12.61612 | 130.89481 | 12171 ft | 362 kts | 258° |
| 2026-05-05 01:15 | -12.62144 | 130.86911 | 12412 ft | 374 kts | 259° |
| 2026-05-05 01:15 | -12.62688 | 130.84250 | 12901 ft | 378 kts | 261° |
| 2026-05-05 01:15 | -12.62986 | 130.81571 | 13431 ft | 380 kts | 265° |
| 2026-05-05 01:15 | -12.63240 | 130.78866 | 13951 ft | 383 kts | 265° |
| 2026-05-05 01:16 | -12.63501 | 130.76150 | 14428 ft | 384 kts | 265° |
| 2026-05-05 01:16 | -12.63760 | 130.73457 | 14896 ft | 386 kts | 265° |
| 2026-05-05 01:16 | -12.64022 | 130.70711 | 15370 ft | 388 kts | 265° |
| 2026-05-05 01:16 | -12.64284 | 130.67960 | 15851 ft | 390 kts | 265° |
| 2026-05-05 01:17 | -12.64549 | 130.65191 | 16329 ft | 391 kts | 265° |
| 2026-05-05 01:17 | -12.65057 | 130.62446 | 16794 ft | 395 kts | 254° |
| 2026-05-05 01:17 | -12.66087 | 130.59833 | 17267 ft | 398 kts | 243° |
| 2026-05-05 01:17 | -12.67607 | 130.57446 | 17741 ft | 402 kts | 234° |
| 2026-05-05 01:18 | -12.69335 | 130.55186 | 18211 ft | 404 kts | 233° |
| 2026-05-05 01:18 | -12.71071 | 130.52910 | 18609 ft | 406 kts | 234° |
| 2026-05-05 01:18 | -12.72808 | 130.50631 | 19001 ft | 407 kts | 234° |
| 2026-05-05 01:18 | -12.74555 | 130.48335 | 19388 ft | 409 kts | 234° |
| 2026-05-05 01:19 | -12.76328 | 130.46005 | 19779 ft | 410 kts | 234° |
| 2026-05-05 01:19 | -12.78082 | 130.43702 | 20159 ft | 411 kts | 234° |
| 2026-05-05 01:19 | -12.79820 | 130.41421 | 20511 ft | 412 kts | 234° |
| 2026-05-05 01:19 | -12.81582 | 130.39103 | 20853 ft | 413 kts | 234° |
| 2026-05-05 01:20 | -12.83349 | 130.36777 | 21180 ft | 415 kts | 234° |
| 2026-05-05 01:20 | -12.85148 | 130.34407 | 21505 ft | 416 kts | 234° |
| 2026-05-05 01:20 | -12.86927 | 130.32061 | 21816 ft | 417 kts | 234° |
| 2026-05-05 01:20 | -12.88683 | 130.29746 | 22110 ft | 418 kts | 234° |
| 2026-05-05 01:21 | -12.90471 | 130.27387 | 22418 ft | 419 kts | 234° |
| 2026-05-05 01:21 | -12.92260 | 130.25024 | 22710 ft | 420 kts | 234° |
| 2026-05-05 01:21 | -12.94054 | 130.22655 | 22987 ft | 421 kts | 234° |
| 2026-05-05 01:21 | -12.95853 | 130.20280 | 23261 ft | 422 kts | 234° |
| 2026-05-05 01:22 | -12.97659 | 130.17899 | 23531 ft | 424 kts | 234° |
| 2026-05-05 01:22 | -12.99472 | 130.15510 | 23753 ft | 425 kts | 234° |
| 2026-05-05 01:22 | -13.01289 | 130.13116 | 23971 ft | 426 kts | 234° |
| 2026-05-05 01:22 | -13.03111 | 130.10711 | 24183 ft | 427 kts | 234° |
| 2026-05-05 01:23 | -13.04935 | 130.08303 | 24392 ft | 428 kts | 234° |
| 2026-05-05 01:23 | -13.06767 | 130.05883 | 24600 ft | 430 kts | 234° |
| 2026-05-05 01:23 | -13.08599 | 130.03461 | 24808 ft | 431 kts | 234° |
| 2026-05-05 01:23 | -13.10440 | 130.01030 | 25018 ft | 432 kts | 234° |
| 2026-05-05 01:24 | -13.12283 | 129.98598 | 25219 ft | 433 kts | 234° |
| 2026-05-05 01:24 | -13.14131 | 129.96156 | 25422 ft | 434 kts | 234° |
| 2026-05-05 01:24 | -13.15984 | 129.93711 | 25607 ft | 435 kts | 234° |
| 2026-05-05 01:24 | -13.17839 | 129.91258 | 25800 ft | 436 kts | 234° |
| 2026-05-05 01:25 | -13.19698 | 129.88798 | 25997 ft | 437 kts | 234° |
| 2026-05-05 01:25 | -13.21559 | 129.86332 | 26181 ft | 438 kts | 234° |
| 2026-05-05 01:25 | -13.23424 | 129.83859 | 26367 ft | 439 kts | 234° |
| 2026-05-05 01:25 | -13.25294 | 129.81379 | 26554 ft | 440 kts | 234° |
| 2026-05-05 01:26 | -13.27169 | 129.78893 | 26762 ft | 441 kts | 234° |
| 2026-05-05 01:26 | -13.29043 | 129.76403 | 26968 ft | 441 kts | 234° |
| 2026-05-05 01:26 | -13.30923 | 129.73908 | 27161 ft | 442 kts | 234° |
| 2026-05-05 01:26 | -13.32808 | 129.71410 | 27350 ft | 443 kts | 234° |
| 2026-05-05 01:27 | -13.34699 | 129.68906 | 27529 ft | 444 kts | 234° |
| 2026-05-05 01:27 | -13.36598 | 129.66397 | 27716 ft | 445 kts | 234° |
| 2026-05-05 01:27 | -13.38499 | 129.63878 | 27901 ft | 446 kts | 234° |
| 2026-05-05 01:27 | -13.40399 | 129.61353 | 28088 ft | 447 kts | 234° |
| 2026-05-05 01:28 | -13.41658 | 129.59678 | 28243 ft | 447 kts | 234° |
| 2026-05-05 01:28 | -13.43557 | 129.57155 | 28531 ft | 446 kts | 233° |
| 2026-05-05 01:28 | -13.45454 | 129.54637 | 28826 ft | 445 kts | 233° |
| 2026-05-05 01:28 | -13.47340 | 129.52125 | 29120 ft | 444 kts | 234° |
| 2026-05-05 01:29 | -13.49222 | 129.49615 | 29411 ft | 443 kts | 234° |
| 2026-05-05 01:29 | -13.51097 | 129.47112 | 29706 ft | 442 kts | 233° |
| 2026-05-05 01:29 | -13.52972 | 129.44611 | 30004 ft | 441 kts | 233° |
| 2026-05-05 01:29 | -13.55453 | 129.41312 | 30351 ft | 440 kts | 233° |
| 2026-05-05 01:30 | -13.56719 | 129.39634 | 30534 ft | 439 kts | 233° |
| 2026-05-05 01:30 | -13.58587 | 129.37154 | 30812 ft | 438 kts | 233° |
| 2026-05-05 01:30 | -13.60451 | 129.34676 | 31080 ft | 437 kts | 233° |
| 2026-05-05 01:30 | -13.62306 | 129.32205 | 31353 ft | 436 kts | 233° |
| 2026-05-05 01:31 | -13.64151 | 129.29742 | 31674 ft | 434 kts | 234° |
| 2026-05-05 01:31 | -13.65990 | 129.27284 | 31981 ft | 433 kts | 234° |
| 2026-05-05 01:31 | -13.67821 | 129.24835 | 32276 ft | 432 kts | 234° |
| 2026-05-05 01:31 | -13.69650 | 129.22392 | 32571 ft | 431 kts | 234° |
| 2026-05-05 01:32 | -13.71477 | 129.19958 | 32868 ft | 430 kts | 233° |
| 2026-05-05 01:32 | -13.73302 | 129.17527 | 33167 ft | 429 kts | 234° |
| 2026-05-05 01:32 | -13.75123 | 129.15103 | 33463 ft | 428 kts | 233° |
| 2026-05-05 01:32 | -13.76942 | 129.12682 | 33770 ft | 427 kts | 234° |
| 2026-05-05 01:33 | -13.78750 | 129.10265 | 34081 ft | 426 kts | 234° |
| 2026-05-05 01:33 | -13.80553 | 129.07853 | 34368 ft | 424 kts | 234° |
| 2026-05-05 01:33 | -13.82349 | 129.05450 | 34647 ft | 423 kts | 234° |
| 2026-05-05 01:33 | -13.84118 | 129.03085 | 34911 ft | 422 kts | 234° |
| 2026-05-05 01:34 | -13.85929 | 129.00661 | 35185 ft | 421 kts | 234° |
| 2026-05-05 01:34 | -13.87689 | 128.98306 | 35441 ft | 420 kts | 234° |
| 2026-05-05 01:34 | -13.89471 | 128.95925 | 35694 ft | 419 kts | 234° |
| 2026-05-05 01:34 | -13.91248 | 128.93548 | 35912 ft | 419 kts | 234° |
| 2026-05-05 01:35 | -13.94795 | 128.88798 | 35978 ft | 418 kts | 234° |
| 2026-05-05 01:35 | -13.98329 | 128.84062 | 35978 ft | 417 kts | 234° |
| 2026-05-05 01:36 | -14.01860 | 128.79326 | 35983 ft | 416 kts | 234° |
| 2026-05-05 01:36 | -14.05385 | 128.74599 | 35983 ft | 416 kts | 234° |
| 2026-05-05 01:37 | -14.08903 | 128.69870 | 35982 ft | 416 kts | 234° |
| 2026-05-05 01:37 | -14.12466 | 128.65175 | 35987 ft | 417 kts | 229° |
| 2026-05-05 01:38 | -14.14653 | 128.63196 | 35984 ft | 422 kts | 217° |
| 2026-05-05 01:38 | -14.17241 | 128.61748 | 35983 ft | 428 kts | 205° |
| 2026-05-05 01:38 | -14.20130 | 128.60922 | 35980 ft | 436 kts | 193° |
| 2026-05-05 01:38 | -14.23185 | 128.60794 | 35976 ft | 444 kts | 182° |
| 2026-05-05 01:39 | -14.29361 | 128.61203 | 35971 ft | 445 kts | 182° |
| 2026-05-05 01:39 | -14.35552 | 128.61600 | 35974 ft | 446 kts | 182° |
| 2026-05-05 01:40 | -14.41746 | 128.61994 | 35974 ft | 446 kts | 182° |
| 2026-05-05 01:40 | -14.47940 | 128.62401 | 35974 ft | 446 kts | 182° |
| 2026-05-05 01:41 | -14.54139 | 128.62813 | 35969 ft | 446 kts | 182° |
| 2026-05-05 01:41 | -14.60333 | 128.63212 | 35987 ft | 446 kts | 182° |
| 2026-05-05 01:42 | -14.66528 | 128.63610 | 35979 ft | 446 kts | 182° |
| 2026-05-05 01:42 | -14.72728 | 128.64020 | 35979 ft | 447 kts | 182° |
| 2026-05-05 01:43 | -14.78939 | 128.64428 | 35977 ft | 447 kts | 182° |
| 2026-05-05 01:43 | -14.85151 | 128.64837 | 35982 ft | 447 kts | 182° |
| 2026-05-05 01:44 | -14.91363 | 128.65234 | 35996 ft | 448 kts | 182° |
| 2026-05-05 01:44 | -14.97540 | 128.65629 | 35991 ft | 448 kts | 182° |
| 2026-05-05 01:45 | -15.03764 | 128.66041 | 35983 ft | 448 kts | 182° |
| 2026-05-05 01:45 | -15.09985 | 128.66455 | 35984 ft | 448 kts | 182° |
| 2026-05-05 01:46 | -15.16209 | 128.66858 | 36003 ft | 448 kts | 183° |
| 2026-05-05 01:46 | -15.22430 | 128.67255 | 36001 ft | 448 kts | 183° |
| 2026-05-05 01:47 | -15.28650 | 128.67667 | 35998 ft | 448 kts | 182° |
| 2026-05-05 01:47 | -15.34864 | 128.68082 | 35994 ft | 448 kts | 182° |
| 2026-05-05 01:48 | -15.41078 | 128.68484 | 35993 ft | 448 kts | 183° |
| 2026-05-05 01:48 | -15.47291 | 128.68882 | 36010 ft | 447 kts | 183° |
| 2026-05-05 01:49 | -15.53508 | 128.69293 | 36019 ft | 447 kts | 183° |
| 2026-05-05 01:49 | -15.59720 | 128.69709 | 36024 ft | 447 kts | 183° |
| 2026-05-05 01:50 | -15.65932 | 128.70125 | 36022 ft | 447 kts | 183° |
| 2026-05-05 01:50 | -15.72143 | 128.70527 | 36040 ft | 447 kts | 183° |
| 2026-05-05 01:51 | -15.78255 | 128.70483 | 36035 ft | 436 kts | 195° |
| 2026-05-05 01:51 | -15.84041 | 128.68901 | 36031 ft | 429 kts | 202° |
| 2026-05-05 01:52 | -15.89774 | 128.67164 | 36026 ft | 429 kts | 202° |
| 2026-05-05 01:52 | -15.95513 | 128.65439 | 36028 ft | 429 kts | 202° |
| 2026-05-05 01:53 | -16.01249 | 128.63704 | 36034 ft | 429 kts | 202° |
| 2026-05-05 01:53 | -16.06981 | 128.61966 | 36035 ft | 429 kts | 202° |
| 2026-05-05 01:54 | -16.12705 | 128.60228 | 36032 ft | 428 kts | 202° |
| 2026-05-05 01:54 | -16.18426 | 128.58494 | 36034 ft | 428 kts | 202° |
| 2026-05-05 01:55 | -16.24143 | 128.56760 | 36034 ft | 428 kts | 202° |
| 2026-05-05 01:55 | -16.29858 | 128.55022 | 36050 ft | 428 kts | 203° |
| 2026-05-05 01:56 | -16.35569 | 128.53282 | 36049 ft | 427 kts | 203° |
| 2026-05-05 01:56 | -16.41271 | 128.51543 | 36044 ft | 427 kts | 203° |
| 2026-05-05 01:57 | -16.46966 | 128.49815 | 36041 ft | 426 kts | 203° |
| 2026-05-05 01:57 | -16.52659 | 128.48082 | 36040 ft | 426 kts | 203° |
| 2026-05-05 01:58 | -16.58347 | 128.46344 | 36056 ft | 426 kts | 203° |
| 2026-05-05 01:58 | -16.63904 | 128.44349 | 36053 ft | 416 kts | 213° |
| 2026-05-05 01:59 | -16.68842 | 128.41289 | 36048 ft | 412 kts | 217° |
| 2026-05-05 01:59 | -16.73709 | 128.38206 | 36044 ft | 412 kts | 217° |
| 2026-05-05 02:00 | -16.78611 | 128.35104 | 36046 ft | 412 kts | 217° |
| 2026-05-05 02:00 | -16.83515 | 128.32000 | 36044 ft | 412 kts | 217° |
| 2026-05-05 02:01 | -16.88411 | 128.28891 | 36062 ft | 412 kts | 217° |
| 2026-05-05 02:01 | -16.93307 | 128.25780 | 36060 ft | 412 kts | 217° |
| 2026-05-05 02:02 | -16.98198 | 128.22676 | 36056 ft | 411 kts | 217° |
| 2026-05-05 02:02 | -17.03078 | 128.19570 | 36058 ft | 411 kts | 217° |
| 2026-05-05 02:03 | -17.07962 | 128.16463 | 36047 ft | 411 kts | 217° |
| 2026-05-05 02:03 | -17.12850 | 128.13359 | 36051 ft | 411 kts | 217° |
| 2026-05-05 02:04 | -17.17731 | 128.10250 | 36047 ft | 411 kts | 217° |
| 2026-05-05 02:04 | -17.22613 | 128.07132 | 36046 ft | 411 kts | 217° |
| 2026-05-05 02:05 | -17.27490 | 128.04017 | 36042 ft | 411 kts | 217° |
| 2026-05-05 02:05 | -17.32379 | 128.00910 | 36041 ft | 411 kts | 217° |
| 2026-05-05 02:06 | -17.37258 | 127.97797 | 36040 ft | 411 kts | 217° |
| 2026-05-05 02:06 | -17.42132 | 127.94673 | 36046 ft | 411 kts | 217° |
| 2026-05-05 02:07 | -17.47012 | 127.91556 | 36052 ft | 411 kts | 217° |
| 2026-05-05 02:07 | -17.51890 | 127.88445 | 36060 ft | 410 kts | 217° |
| 2026-05-05 02:08 | -17.56763 | 127.85331 | 36055 ft | 410 kts | 217° |
| 2026-05-05 02:08 | -17.61591 | 127.82235 | 36066 ft | 409 kts | 218° |
| 2026-05-05 02:09 | -17.66447 | 127.79121 | 36050 ft | 409 kts | 218° |
| 2026-05-05 02:09 | -17.71302 | 127.76007 | 36048 ft | 408 kts | 217° |
| 2026-05-05 02:10 | -17.76149 | 127.72900 | 36049 ft | 408 kts | 217° |
| 2026-05-05 02:10 | -17.80996 | 127.69789 | 36047 ft | 408 kts | 218° |
| 2026-05-05 02:11 | -17.85843 | 127.66676 | 36072 ft | 408 kts | 218° |
| 2026-05-05 02:11 | -17.90680 | 127.63563 | 36067 ft | 407 kts | 218° |
| 2026-05-05 02:12 | -17.97921 | 127.58900 | 36058 ft | 407 kts | 218° |
| 2026-05-05 02:13 | -18.02742 | 127.55795 | 36054 ft | 406 kts | 218° |
| 2026-05-05 02:13 | -18.07564 | 127.52690 | 36049 ft | 406 kts | 218° |
| 2026-05-05 02:14 | -18.12377 | 127.49583 | 36043 ft | 406 kts | 218° |
| 2026-05-05 02:14 | -18.17162 | 127.46500 | 36070 ft | 406 kts | 218° |
| 2026-05-05 02:15 | -18.21976 | 127.43399 | 36062 ft | 405 kts | 218° |
| 2026-05-05 02:15 | -18.26773 | 127.40296 | 36058 ft | 404 kts | 218° |
| 2026-05-05 02:16 | -18.31558 | 127.37201 | 36057 ft | 404 kts | 218° |
| 2026-05-05 02:16 | -18.36346 | 127.34111 | 36051 ft | 404 kts | 218° |
| 2026-05-05 02:17 | -18.41130 | 127.31016 | 36044 ft | 403 kts | 218° |
| 2026-05-05 02:17 | -18.45911 | 127.27920 | 36040 ft | 403 kts | 218° |
| 2026-05-05 02:18 | -18.49882 | 127.25347 | 36058 ft | 403 kts | 218° |
| 2026-05-05 02:18 | -18.55464 | 127.21736 | 36063 ft | 402 kts | 219° |
| 2026-05-05 02:19 | -18.59419 | 127.19166 | 36058 ft | 401 kts | 219° |
| 2026-05-05 02:19 | -18.64169 | 127.16080 | 36053 ft | 401 kts | 219° |
| 2026-05-05 02:20 | -18.68915 | 127.12993 | 36044 ft | 401 kts | 219° |
| 2026-05-05 02:20 | -18.73662 | 127.09908 | 36039 ft | 400 kts | 219° |
| 2026-05-05 02:21 | -18.78407 | 127.06826 | 36033 ft | 400 kts | 219° |
| 2026-05-05 02:21 | -18.83147 | 127.03741 | 36056 ft | 400 kts | 219° |
| 2026-05-05 02:22 | -18.87877 | 127.00657 | 36051 ft | 399 kts | 219° |
| 2026-05-05 02:22 | -18.92599 | 126.97574 | 36049 ft | 399 kts | 219° |
| 2026-05-05 02:23 | -18.97323 | 126.94501 | 36045 ft | 399 kts | 219° |
| 2026-05-05 02:23 | -19.02041 | 126.91428 | 36042 ft | 398 kts | 219° |
| 2026-05-05 02:24 | -19.06746 | 126.88342 | 36035 ft | 398 kts | 219° |
| 2026-05-05 02:24 | -19.11454 | 126.85263 | 36031 ft | 398 kts | 219° |
| 2026-05-05 02:25 | -19.16133 | 126.82208 | 36055 ft | 398 kts | 219° |
| 2026-05-05 02:25 | -19.20840 | 126.79137 | 36050 ft | 397 kts | 219° |
| 2026-05-05 02:26 | -19.25537 | 126.76056 | 36044 ft | 397 kts | 219° |
| 2026-05-05 02:26 | -19.30234 | 126.72976 | 36038 ft | 397 kts | 219° |
| 2026-05-05 02:27 | -19.34929 | 126.69897 | 36037 ft | 397 kts | 219° |
| 2026-05-05 02:27 | -19.39621 | 126.66814 | 36036 ft | 397 kts | 219° |
| 2026-05-05 02:28 | -19.44314 | 126.63733 | 36034 ft | 397 kts | 219° |
| 2026-05-05 02:28 | -19.49005 | 126.60648 | 36046 ft | 397 kts | 219° |
| 2026-05-05 02:29 | -19.53694 | 126.57561 | 36048 ft | 397 kts | 219° |
| 2026-05-05 02:29 | -19.58386 | 126.54483 | 36046 ft | 397 kts | 219° |
| 2026-05-05 02:30 | -19.63072 | 126.51398 | 36039 ft | 396 kts | 219° |
| 2026-05-05 02:30 | -19.67753 | 126.48303 | 36032 ft | 396 kts | 219° |
| 2026-05-05 02:31 | -19.72441 | 126.45211 | 36037 ft | 397 kts | 219° |
| 2026-05-05 02:31 | -19.77127 | 126.42123 | 36065 ft | 397 kts | 219° |
| 2026-05-05 02:32 | -19.81818 | 126.39025 | 36056 ft | 397 kts | 219° |
| 2026-05-05 02:32 | -19.86506 | 126.35932 | 36055 ft | 397 kts | 219° |
| 2026-05-05 02:33 | -19.91159 | 126.32846 | 36051 ft | 397 kts | 219° |
| 2026-05-05 02:33 | -19.95849 | 126.29746 | 36047 ft | 397 kts | 219° |
| 2026-05-05 02:34 | -20.00537 | 126.26644 | 36048 ft | 397 kts | 219° |
| 2026-05-05 02:34 | -20.05221 | 126.23533 | 36045 ft | 397 kts | 219° |
| 2026-05-05 02:35 | -20.09911 | 126.20427 | 36066 ft | 397 kts | 219° |
| 2026-05-05 02:35 | -20.14601 | 126.17315 | 36059 ft | 397 kts | 219° |
| 2026-05-05 02:36 | -20.19293 | 126.14199 | 36053 ft | 397 kts | 220° |
| 2026-05-05 02:36 | -20.23979 | 126.11080 | 36055 ft | 397 kts | 220° |
| 2026-05-05 02:37 | -20.28668 | 126.07953 | 36054 ft | 398 kts | 220° |
| 2026-05-05 02:37 | -20.33361 | 126.04833 | 36055 ft | 398 kts | 219° |
| 2026-05-05 02:38 | -20.38055 | 126.01708 | 36054 ft | 398 kts | 220° |
| 2026-05-05 02:38 | -20.42745 | 125.98587 | 36055 ft | 398 kts | 219° |
| 2026-05-05 02:39 | -20.47442 | 125.95463 | 36056 ft | 398 kts | 220° |
| 2026-05-05 02:39 | -20.52128 | 125.92328 | 36064 ft | 398 kts | 220° |
| 2026-05-05 02:40 | -20.56816 | 125.89191 | 36061 ft | 398 kts | 220° |
| 2026-05-05 02:40 | -20.61477 | 125.86082 | 36060 ft | 398 kts | 220° |
| 2026-05-05 02:41 | -20.66167 | 125.82946 | 36061 ft | 398 kts | 220° |
| 2026-05-05 02:41 | -20.70863 | 125.79805 | 36062 ft | 398 kts | 220° |
| 2026-05-05 02:42 | -20.75548 | 125.76659 | 36085 ft | 398 kts | 220° |
| 2026-05-05 02:42 | -20.80236 | 125.73512 | 36080 ft | 398 kts | 220° |
| 2026-05-05 02:43 | -20.84923 | 125.70367 | 36077 ft | 398 kts | 220° |
| 2026-05-05 02:43 | -20.89613 | 125.67221 | 36081 ft | 398 kts | 220° |
| 2026-05-05 02:44 | -20.94301 | 125.64072 | 36078 ft | 398 kts | 220° |
| 2026-05-05 02:44 | -20.98994 | 125.60919 | 36075 ft | 398 kts | 220° |
| 2026-05-05 02:45 | -21.03675 | 125.57767 | 36084 ft | 398 kts | 220° |
| 2026-05-05 02:45 | -21.08333 | 125.54632 | 36113 ft | 398 kts | 220° |
| 2026-05-05 02:46 | -21.13015 | 125.51467 | 36098 ft | 398 kts | 220° |
| 2026-05-05 02:46 | -21.17699 | 125.48309 | 36096 ft | 398 kts | 220° |
| 2026-05-05 02:47 | -21.22383 | 125.45148 | 36096 ft | 398 kts | 220° |
| 2026-05-05 02:47 | -21.27061 | 125.41982 | 36099 ft | 398 kts | 220° |
| 2026-05-05 02:48 | -21.31742 | 125.38814 | 36095 ft | 398 kts | 220° |
| 2026-05-05 02:48 | -21.36426 | 125.35654 | 36094 ft | 398 kts | 220° |
| 2026-05-05 02:49 | -21.41112 | 125.32489 | 36125 ft | 398 kts | 220° |
| 2026-05-05 02:49 | -21.45789 | 125.29314 | 36113 ft | 398 kts | 220° |
| 2026-05-05 02:50 | -21.50471 | 125.26141 | 36104 ft | 398 kts | 220° |
| 2026-05-05 02:50 | -21.55156 | 125.22967 | 36103 ft | 398 kts | 220° |
| 2026-05-05 02:51 | -21.59832 | 125.19783 | 36101 ft | 398 kts | 220° |
| 2026-05-05 02:51 | -21.64509 | 125.16598 | 36105 ft | 398 kts | 220° |
| 2026-05-05 02:52 | -21.69187 | 125.13414 | 36108 ft | 398 kts | 220° |
| 2026-05-05 02:52 | -21.73835 | 125.10252 | 36133 ft | 398 kts | 220° |
| 2026-05-05 02:53 | -21.78517 | 125.07068 | 36125 ft | 398 kts | 220° |
| 2026-05-05 02:53 | -21.83194 | 125.03875 | 36121 ft | 398 kts | 220° |
| 2026-05-05 02:54 | -21.87897 | 125.00665 | 36114 ft | 398 kts | 220° |
| 2026-05-05 02:54 | -21.92544 | 124.97493 | 36120 ft | 398 kts | 220° |
| 2026-05-05 02:55 | -21.97221 | 124.94303 | 36120 ft | 398 kts | 220° |
| 2026-05-05 02:55 | -22.01888 | 124.91102 | 36121 ft | 398 kts | 220° |
| 2026-05-05 02:56 | -22.06557 | 124.87902 | 36146 ft | 398 kts | 220° |
| 2026-05-05 02:56 | -22.11224 | 124.84706 | 36139 ft | 397 kts | 220° |
| 2026-05-05 02:57 | -22.15892 | 124.81514 | 36142 ft | 397 kts | 220° |
| 2026-05-05 02:57 | -22.20551 | 124.78316 | 36135 ft | 397 kts | 221° |
| 2026-05-05 02:58 | -22.25207 | 124.75113 | 36130 ft | 397 kts | 221° |
| 2026-05-05 02:58 | -22.29862 | 124.71905 | 36142 ft | 397 kts | 221° |
| 2026-05-05 02:59 | -22.34515 | 124.68704 | 36140 ft | 396 kts | 221° |
| 2026-05-05 02:59 | -22.39163 | 124.65502 | 36165 ft | 396 kts | 221° |
| 2026-05-05 03:00 | -22.43808 | 124.62309 | 36159 ft | 396 kts | 221° |
| 2026-05-05 03:00 | -22.48450 | 124.59117 | 36154 ft | 395 kts | 221° |
| 2026-05-05 03:01 | -22.53080 | 124.55919 | 36149 ft | 395 kts | 221° |
| 2026-05-05 03:01 | -22.57706 | 124.52715 | 36152 ft | 395 kts | 221° |
| 2026-05-05 03:02 | -22.62336 | 124.49513 | 36149 ft | 395 kts | 221° |
| 2026-05-05 03:02 | -22.66967 | 124.46317 | 36158 ft | 395 kts | 221° |
| 2026-05-05 03:03 | -22.71597 | 124.43116 | 36165 ft | 394 kts | 221° |
| 2026-05-05 03:03 | -22.76187 | 124.39931 | 36158 ft | 394 kts | 221° |
| 2026-05-05 03:04 | -22.80805 | 124.36725 | 36163 ft | 394 kts | 221° |
| 2026-05-05 03:04 | -22.85421 | 124.33522 | 36163 ft | 394 kts | 221° |
| 2026-05-05 03:05 | -22.90037 | 124.30317 | 36162 ft | 394 kts | 221° |
| 2026-05-05 03:05 | -22.94646 | 124.27104 | 36161 ft | 394 kts | 221° |
| 2026-05-05 03:06 | -22.99261 | 124.23897 | 36159 ft | 394 kts | 221° |
| 2026-05-05 03:06 | -23.03877 | 124.20687 | 36185 ft | 394 kts | 221° |
| 2026-05-05 03:07 | -23.08491 | 124.17472 | 36181 ft | 394 kts | 221° |
| 2026-05-05 03:07 | -23.12327 | 124.14802 | 36174 ft | 394 kts | 221° |
| 2026-05-05 03:08 | -23.16937 | 124.11582 | 36170 ft | 394 kts | 221° |
| 2026-05-05 03:08 | -23.21543 | 124.08363 | 36171 ft | 394 kts | 221° |
| 2026-05-05 03:09 | -23.26152 | 124.05134 | 36171 ft | 394 kts | 221° |
| 2026-05-05 03:09 | -23.30761 | 124.01907 | 36169 ft | 394 kts | 221° |
| 2026-05-05 03:10 | -23.35374 | 123.98678 | 36204 ft | 394 kts | 221° |
| 2026-05-05 03:10 | -23.39989 | 123.95452 | 36187 ft | 394 kts | 221° |
| 2026-05-05 03:11 | -23.44498 | 123.92290 | 36183 ft | 394 kts | 221° |
| 2026-05-05 03:11 | -23.49112 | 123.89056 | 36183 ft | 394 kts | 221° |
| 2026-05-05 03:12 | -23.56683 | 123.83722 | 36182 ft | 394 kts | 222° |
| 2026-05-05 03:12 | -23.64191 | 123.78435 | 36188 ft | 395 kts | 221° |
| 2026-05-05 03:13 | -23.68808 | 123.75192 | 36181 ft | 395 kts | 221° |
| 2026-05-05 03:13 | -23.73420 | 123.71942 | 36190 ft | 395 kts | 222° |
| 2026-05-05 03:14 | -23.82711 | 123.65372 | 36202 ft | 395 kts | 222° |
| 2026-05-05 03:14 | -24.01158 | 123.52319 | 36215 ft | 395 kts | 221° |
| 2026-05-05 03:15 | -24.18156 | 123.40223 | 36206 ft | 396 kts | 221° |
| 2026-05-05 03:15 | -24.22776 | 123.36949 | 36205 ft | 396 kts | 221° |
| 2026-05-05 03:16 | -24.27397 | 123.33662 | 36205 ft | 396 kts | 222° |
| 2026-05-05 03:16 | -24.32014 | 123.30365 | 36226 ft | 396 kts | 221° |
| 2026-05-05 03:17 | -24.36640 | 123.27060 | 36216 ft | 397 kts | 221° |
| 2026-05-05 03:17 | -24.41159 | 123.23620 | 36210 ft | 391 kts | 228° |
| 2026-05-05 03:18 | -24.45302 | 123.19761 | 36210 ft | 391 kts | 228° |
| 2026-05-05 03:18 | -24.49450 | 123.15889 | 36212 ft | 391 kts | 227° |
| 2026-05-05 03:19 | -24.55689 | 123.10091 | 36220 ft | 392 kts | 227° |
| 2026-05-05 03:19 | -24.59845 | 123.06216 | 36220 ft | 392 kts | 227° |
| 2026-05-05 03:20 | -24.64002 | 123.02341 | 36244 ft | 393 kts | 227° |
| 2026-05-05 03:20 | -24.68175 | 122.98441 | 36227 ft | 394 kts | 227° |
| 2026-05-05 03:21 | -24.72362 | 122.94529 | 36219 ft | 395 kts | 227° |
| 2026-05-05 03:21 | -24.76560 | 122.90612 | 36219 ft | 396 kts | 227° |
| 2026-05-05 03:22 | -24.80758 | 122.86674 | 36227 ft | 397 kts | 227° |
| 2026-05-05 03:22 | -24.84966 | 122.82729 | 36221 ft | 397 kts | 227° |
| 2026-05-05 03:23 | -24.89174 | 122.78775 | 36220 ft | 398 kts | 227° |
| 2026-05-05 03:23 | -24.93358 | 122.74839 | 36224 ft | 398 kts | 227° |
| 2026-05-05 03:24 | -24.97573 | 122.70876 | 36247 ft | 399 kts | 227° |
| 2026-05-05 03:24 | -25.01813 | 122.66904 | 36226 ft | 401 kts | 227° |
| 2026-05-05 03:25 | -25.06064 | 122.62906 | 36227 ft | 402 kts | 227° |
| 2026-05-05 03:25 | -25.10319 | 122.58887 | 36231 ft | 403 kts | 227° |
| 2026-05-05 03:26 | -25.14585 | 122.54856 | 36229 ft | 404 kts | 227° |
| 2026-05-05 03:26 | -25.18862 | 122.50821 | 36233 ft | 405 kts | 226° |
| 2026-05-05 03:27 | -25.23144 | 122.46780 | 36234 ft | 405 kts | 227° |
| 2026-05-05 03:27 | -25.27416 | 122.42729 | 36235 ft | 405 kts | 227° |
| 2026-05-05 03:28 | -25.31697 | 122.38677 | 36253 ft | 406 kts | 226° |
| 2026-05-05 03:28 | -25.35989 | 122.34605 | 36251 ft | 407 kts | 226° |
| 2026-05-05 03:29 | -25.40294 | 122.30512 | 36231 ft | 409 kts | 226° |
| 2026-05-05 03:29 | -25.44618 | 122.26403 | 36236 ft | 411 kts | 226° |
| 2026-05-05 03:30 | -25.48958 | 122.22279 | 36236 ft | 412 kts | 226° |
| 2026-05-05 03:30 | -25.53305 | 122.18143 | 36240 ft | 412 kts | 226° |
| 2026-05-05 03:31 | -25.57660 | 122.13995 | 36242 ft | 413 kts | 226° |
| 2026-05-05 03:31 | -25.62017 | 122.09841 | 36254 ft | 413 kts | 226° |
| 2026-05-05 03:32 | -25.66376 | 122.05682 | 36277 ft | 414 kts | 225° |
| 2026-05-05 03:32 | -25.70742 | 122.01503 | 36257 ft | 415 kts | 225° |
| 2026-05-05 03:33 | -25.75124 | 121.97310 | 36257 ft | 416 kts | 225° |
| 2026-05-05 03:33 | -25.79515 | 121.93112 | 36256 ft | 417 kts | 225° |
| 2026-05-05 03:34 | -25.83910 | 121.88903 | 36258 ft | 417 kts | 225° |
| 2026-05-05 03:34 | -25.88300 | 121.84691 | 36260 ft | 417 kts | 225° |
| 2026-05-05 03:35 | -25.92686 | 121.80473 | 36259 ft | 417 kts | 225° |
| 2026-05-05 03:35 | -25.97079 | 121.76249 | 36263 ft | 418 kts | 225° |
| 2026-05-05 03:36 | -26.01474 | 121.72020 | 36280 ft | 418 kts | 225° |
| 2026-05-05 03:36 | -26.05845 | 121.67805 | 36261 ft | 419 kts | 225° |
| 2026-05-05 03:37 | -26.10254 | 121.63551 | 36262 ft | 420 kts | 225° |
| 2026-05-05 03:37 | -26.14670 | 121.59295 | 36262 ft | 420 kts | 225° |
| 2026-05-05 03:38 | -26.19092 | 121.55023 | 36264 ft | 421 kts | 225° |
| 2026-05-05 03:38 | -26.23509 | 121.50746 | 36273 ft | 421 kts | 225° |
| 2026-05-05 03:39 | -26.27929 | 121.46464 | 36269 ft | 421 kts | 225° |
| 2026-05-05 03:39 | -26.32345 | 121.42177 | 36276 ft | 421 kts | 225° |
| 2026-05-05 03:40 | -26.36761 | 121.37886 | 36282 ft | 422 kts | 225° |
| 2026-05-05 03:40 | -26.41192 | 121.33589 | 36269 ft | 422 kts | 225° |
| 2026-05-05 03:41 | -26.45625 | 121.29278 | 36267 ft | 423 kts | 225° |
| 2026-05-05 03:41 | -26.50060 | 121.24954 | 36267 ft | 423 kts | 225° |
| 2026-05-05 03:42 | -26.54495 | 121.20627 | 36269 ft | 424 kts | 225° |
| 2026-05-05 03:42 | -26.58945 | 121.16294 | 36269 ft | 424 kts | 225° |
| 2026-05-05 03:43 | -26.63392 | 121.11955 | 36267 ft | 425 kts | 225° |
| 2026-05-05 03:43 | -26.67839 | 121.07604 | 36281 ft | 425 kts | 225° |
| 2026-05-05 03:44 | -26.72290 | 121.03247 | 36271 ft | 426 kts | 225° |
| 2026-05-05 03:44 | -26.76746 | 120.98876 | 36266 ft | 426 kts | 225° |
| 2026-05-05 03:45 | -26.81211 | 120.94491 | 36271 ft | 427 kts | 224° |
| 2026-05-05 03:45 | -26.85684 | 120.90096 | 36267 ft | 428 kts | 224° |
| 2026-05-05 03:46 | -26.90162 | 120.85693 | 36267 ft | 429 kts | 224° |
| 2026-05-05 03:46 | -26.94648 | 120.81280 | 36269 ft | 429 kts | 224° |
| 2026-05-05 03:47 | -26.99103 | 120.76888 | 36273 ft | 429 kts | 224° |
| 2026-05-05 03:47 | -27.03592 | 120.72468 | 36275 ft | 430 kts | 224° |
| 2026-05-05 03:48 | -27.08078 | 120.68037 | 36277 ft | 430 kts | 225° |
| 2026-05-05 03:48 | -27.12561 | 120.63596 | 36283 ft | 430 kts | 225° |
| 2026-05-05 03:49 | -27.17046 | 120.59157 | 36285 ft | 430 kts | 224° |
| 2026-05-05 03:49 | -27.21532 | 120.54720 | 36286 ft | 430 kts | 224° |
| 2026-05-05 03:50 | -27.26012 | 120.50274 | 36284 ft | 430 kts | 225° |
| 2026-05-05 03:50 | -27.30488 | 120.45819 | 36285 ft | 430 kts | 225° |
| 2026-05-05 03:51 | -27.34968 | 120.41366 | 36289 ft | 430 kts | 225° |
| 2026-05-05 03:51 | -27.39448 | 120.36907 | 36289 ft | 430 kts | 224° |
| 2026-05-05 03:52 | -27.43935 | 120.32437 | 36284 ft | 431 kts | 224° |
| 2026-05-05 03:52 | -27.48426 | 120.27956 | 36283 ft | 431 kts | 224° |
| 2026-05-05 03:53 | -27.52920 | 120.23470 | 36285 ft | 432 kts | 224° |
| 2026-05-05 03:53 | -27.56655 | 120.19738 | 36286 ft | 432 kts | 224° |
| 2026-05-05 03:54 | -27.61154 | 120.15237 | 36283 ft | 432 kts | 224° |
| 2026-05-05 03:54 | -27.65646 | 120.10734 | 36292 ft | 432 kts | 224° |
| 2026-05-05 03:55 | -27.70867 | 120.05489 | 36297 ft | 432 kts | 224° |
| 2026-05-05 03:55 | -27.74633 | 120.01709 | 36296 ft | 433 kts | 224° |
| 2026-05-05 03:56 | -27.79132 | 119.97193 | 36297 ft | 433 kts | 224° |
| 2026-05-05 03:56 | -27.83625 | 119.92673 | 36296 ft | 433 kts | 224° |
| 2026-05-05 03:57 | -27.88085 | 119.88175 | 36297 ft | 433 kts | 224° |
| 2026-05-05 03:57 | -27.92571 | 119.83641 | 36298 ft | 433 kts | 224° |
| 2026-05-05 03:58 | -27.97057 | 119.79102 | 36296 ft | 433 kts | 224° |
| 2026-05-05 03:58 | -28.01551 | 119.74564 | 36294 ft | 433 kts | 224° |
| 2026-05-05 03:59 | -28.06043 | 119.70020 | 36304 ft | 433 kts | 224° |
| 2026-05-05 03:59 | -28.10532 | 119.65468 | 36303 ft | 433 kts | 224° |
| 2026-05-05 04:00 | -28.15017 | 119.60914 | 36304 ft | 433 kts | 224° |
| 2026-05-05 04:00 | -28.19497 | 119.56354 | 36303 ft | 433 kts | 224° |
| 2026-05-05 04:01 | -28.23980 | 119.51793 | 36301 ft | 433 kts | 224° |
| 2026-05-05 04:01 | -28.28460 | 119.47235 | 36297 ft | 433 kts | 224° |
| 2026-05-05 04:02 | -28.32943 | 119.42666 | 36298 ft | 433 kts | 224° |
| 2026-05-05 04:02 | -28.37419 | 119.38089 | 36297 ft | 433 kts | 224° |
| 2026-05-05 04:03 | -28.41900 | 119.33512 | 36305 ft | 433 kts | 224° |
| 2026-05-05 04:03 | -28.46379 | 119.28940 | 36306 ft | 433 kts | 224° |
| 2026-05-05 04:04 | -28.50854 | 119.24358 | 36307 ft | 433 kts | 224° |
| 2026-05-05 04:04 | -28.55294 | 119.19804 | 36307 ft | 433 kts | 224° |
| 2026-05-05 04:05 | -28.59756 | 119.15213 | 36308 ft | 432 kts | 224° |
| 2026-05-05 04:05 | -28.64221 | 119.10623 | 36306 ft | 432 kts | 224° |
| 2026-05-05 04:06 | -28.68685 | 119.06033 | 36305 ft | 432 kts | 224° |
| 2026-05-05 04:06 | -28.73146 | 119.01434 | 36318 ft | 432 kts | 224° |
| 2026-05-05 04:07 | -28.77604 | 118.96840 | 36319 ft | 432 kts | 224° |
| 2026-05-05 04:07 | -28.82054 | 118.92242 | 36318 ft | 431 kts | 224° |
| 2026-05-05 04:08 | -28.86499 | 118.87643 | 36315 ft | 431 kts | 224° |
| 2026-05-05 04:08 | -28.90936 | 118.83044 | 36314 ft | 431 kts | 224° |
| 2026-05-05 04:09 | -28.95372 | 118.78439 | 36314 ft | 431 kts | 224° |
| 2026-05-05 04:09 | -28.99808 | 118.73831 | 36312 ft | 431 kts | 224° |
| 2026-05-05 04:10 | -29.04246 | 118.69226 | 36311 ft | 431 kts | 224° |
| 2026-05-05 04:10 | -29.08680 | 118.64618 | 36314 ft | 431 kts | 224° |
| 2026-05-05 04:11 | -29.13105 | 118.60004 | 36315 ft | 430 kts | 224° |
| 2026-05-05 04:11 | -29.17526 | 118.55387 | 36314 ft | 430 kts | 224° |
| 2026-05-05 04:12 | -29.21538 | 118.50360 | 36309 ft | 427 kts | 237° |
| 2026-05-05 04:12 | -29.24930 | 118.44777 | 36307 ft | 427 kts | 236° |
| 2026-05-05 04:13 | -29.28320 | 118.39187 | 36311 ft | 427 kts | 236° |
| 2026-05-05 04:13 | -29.31692 | 118.33636 | 36311 ft | 427 kts | 236° |
| 2026-05-05 04:14 | -29.35084 | 118.28047 | 36310 ft | 427 kts | 236° |
| 2026-05-05 04:14 | -29.38482 | 118.22445 | 36309 ft | 427 kts | 237° |
| 2026-05-05 04:15 | -29.41870 | 118.16849 | 36306 ft | 427 kts | 237° |
| 2026-05-05 04:15 | -29.45252 | 118.11248 | 36311 ft | 427 kts | 237° |
| 2026-05-05 04:16 | -29.48631 | 118.05647 | 36315 ft | 426 kts | 237° |
| 2026-05-05 04:16 | -29.52003 | 118.00052 | 36316 ft | 426 kts | 237° |
| 2026-05-05 04:17 | -29.55366 | 117.94451 | 36312 ft | 426 kts | 237° |
| 2026-05-05 04:17 | -29.58725 | 117.88855 | 36310 ft | 425 kts | 237° |
| 2026-05-05 04:18 | -29.62084 | 117.83256 | 36310 ft | 425 kts | 237° |
| 2026-05-05 04:18 | -29.65443 | 117.77656 | 36311 ft | 425 kts | 237° |
| 2026-05-05 04:19 | -29.68796 | 117.72049 | 36313 ft | 425 kts | 237° |
| 2026-05-05 04:19 | -29.72141 | 117.66442 | 36309 ft | 425 kts | 237° |
| 2026-05-05 04:20 | -29.75496 | 117.60839 | 36305 ft | 425 kts | 237° |
| 2026-05-05 04:20 | -29.78850 | 117.55229 | 36312 ft | 425 kts | 237° |
| 2026-05-05 04:21 | -29.82193 | 117.49607 | 36306 ft | 425 kts | 237° |
| 2026-05-05 04:21 | -29.85498 | 117.44018 | 36315 ft | 425 kts | 237° |
| 2026-05-05 04:22 | -29.88835 | 117.38395 | 36317 ft | 425 kts | 237° |
| 2026-05-05 04:22 | -29.92169 | 117.32778 | 36320 ft | 424 kts | 237° |
| 2026-05-05 04:23 | -29.95502 | 117.27167 | 36320 ft | 424 kts | 237° |
| 2026-05-05 04:23 | -29.98821 | 117.21549 | 36322 ft | 424 kts | 237° |
| 2026-05-05 04:24 | -30.02135 | 117.15925 | 36317 ft | 424 kts | 238° |
| 2026-05-05 04:25 | -30.07099 | 117.07488 | 36311 ft | 424 kts | 238° |
| 2026-05-05 04:25 | -30.10406 | 117.01857 | 36318 ft | 424 kts | 238° |
| 2026-05-05 04:26 | -30.13717 | 116.96230 | 36312 ft | 423 kts | 238° |
| 2026-05-05 04:26 | -30.17023 | 116.90598 | 36316 ft | 423 kts | 238° |
| 2026-05-05 04:27 | -30.20321 | 116.84956 | 36307 ft | 423 kts | 238° |
| 2026-05-05 04:27 | -30.23938 | 116.79576 | 36308 ft | 427 kts | 225° |
| 2026-05-05 04:28 | -30.28905 | 116.75777 | 36314 ft | 434 kts | 206° |
| 2026-05-05 04:28 | -30.34505 | 116.73129 | 36315 ft | 435 kts | 206° |
| 2026-05-05 04:29 | -30.40099 | 116.70470 | 36316 ft | 435 kts | 206° |
| 2026-05-05 04:29 | -30.45691 | 116.67802 | 36315 ft | 435 kts | 206° |
| 2026-05-05 04:30 | -30.51282 | 116.65133 | 36320 ft | 435 kts | 206° |
| 2026-05-05 04:30 | -30.56889 | 116.62500 | 36320 ft | 435 kts | 204° |
| 2026-05-05 04:31 | -30.62627 | 116.60203 | 36324 ft | 437 kts | 201° |
| 2026-05-05 04:31 | -30.68422 | 116.58071 | 36323 ft | 437 kts | 201° |
| 2026-05-05 04:32 | -30.74205 | 116.55890 | 36325 ft | 437 kts | 202° |
| 2026-05-05 04:32 | -30.79962 | 116.53640 | 36323 ft | 436 kts | 202° |
| 2026-05-05 04:33 | -30.85711 | 116.51368 | 36325 ft | 436 kts | 202° |
| 2026-05-05 04:33 | -30.91421 | 116.49127 | 36326 ft | 436 kts | 202° |
| 2026-05-05 04:34 | -30.97180 | 116.46886 | 36332 ft | 436 kts | 202° |
| 2026-05-05 04:34 | -31.02930 | 116.44642 | 36329 ft | 436 kts | 202° |
| 2026-05-05 04:35 | -31.08681 | 116.42379 | 36332 ft | 436 kts | 202° |
| 2026-05-05 04:35 | -31.11556 | 116.41245 | 36150 ft | 436 kts | 202° |
| 2026-05-05 04:35 | -31.14433 | 116.40114 | 35903 ft | 436 kts | 202° |
| 2026-05-05 04:35 | -31.17308 | 116.38987 | 35446 ft | 437 kts | 202° |
| 2026-05-05 04:36 | -31.20209 | 116.37849 | 34636 ft | 442 kts | 201° |
| 2026-05-05 04:36 | -31.23141 | 116.36693 | 33717 ft | 447 kts | 201° |
| 2026-05-05 04:36 | -31.26100 | 116.35526 | 32836 ft | 450 kts | 201° |
| 2026-05-05 04:36 | -31.29079 | 116.34353 | 31879 ft | 454 kts | 201° |
| 2026-05-05 04:37 | -31.32087 | 116.33167 | 30904 ft | 458 kts | 201° |
| 2026-05-05 04:37 | -31.35119 | 116.31967 | 29764 ft | 463 kts | 200° |
| 2026-05-05 04:37 | -31.38185 | 116.30754 | 28600 ft | 466 kts | 200° |
| 2026-05-05 04:37 | -31.41250 | 116.29482 | 27428 ft | 468 kts | 204° |
| 2026-05-05 04:38 | -31.44166 | 116.27785 | 26179 ft | 470 kts | 210° |
| 2026-05-05 04:38 | -31.47042 | 116.25942 | 25035 ft | 472 kts | 210° |
| 2026-05-05 04:38 | -31.49911 | 116.24107 | 24169 ft | 467 kts | 210° |
| 2026-05-05 04:38 | -31.52749 | 116.22296 | 23193 ft | 462 kts | 210° |
| 2026-05-05 04:39 | -31.55547 | 116.20508 | 22340 ft | 454 kts | 210° |
| 2026-05-05 04:39 | -31.58302 | 116.18743 | 21495 ft | 448 kts | 210° |
| 2026-05-05 04:39 | -31.61021 | 116.16998 | 20663 ft | 442 kts | 209° |
| 2026-05-05 04:39 | -31.63699 | 116.15277 | 19838 ft | 437 kts | 209° |
| 2026-05-05 04:40 | -31.66356 | 116.13569 | 19004 ft | 432 kts | 209° |
| 2026-05-05 04:40 | -31.68977 | 116.11886 | 18143 ft | 427 kts | 209° |
| 2026-05-05 04:40 | -31.71560 | 116.10226 | 17376 ft | 419 kts | 208° |
| 2026-05-05 04:40 | -31.74118 | 116.08648 | 16659 ft | 412 kts | 203° |
| 2026-05-05 04:41 | -31.75877 | 116.07852 | 16205 ft | 407 kts | 196° |
| 2026-05-05 04:41 | -31.78610 | 116.07102 | 15525 ft | 401 kts | 188° |
| 2026-05-05 04:41 | -31.82283 | 116.06894 | 14651 ft | 391 kts | 174° |
| 2026-05-05 04:41 | -31.84058 | 116.07159 | 14214 ft | 387 kts | 167° |
| 2026-05-05 04:42 | -31.86620 | 116.08009 | 13515 ft | 379 kts | 157° |
| 2026-05-05 04:42 | -31.89027 | 116.09214 | 12849 ft | 372 kts | 155° |
| 2026-05-05 04:42 | -31.92138 | 116.10801 | 11949 ft | 365 kts | 156° |
| 2026-05-05 04:42 | -31.93703 | 116.11599 | 11523 ft | 361 kts | 156° |
| 2026-05-05 04:43 | -31.96660 | 116.13105 | 11310 ft | 337 kts | 156° |
| 2026-05-05 04:43 | -31.98097 | 116.13818 | 11227 ft | 326 kts | 157° |
| 2026-05-05 04:43 | -32.00156 | 116.14770 | 11107 ft | 311 kts | 159° |
| 2026-05-05 04:43 | -32.02140 | 116.15642 | 10991 ft | 298 kts | 159° |
| 2026-05-05 04:44 | -32.04053 | 116.16466 | 10816 ft | 289 kts | 159° |
| 2026-05-05 04:44 | -32.05953 | 116.17161 | 10570 ft | 285 kts | 168° |
| 2026-05-05 04:44 | -32.07920 | 116.17372 | 10339 ft | 284 kts | 180° |
| 2026-05-05 04:44 | -32.09873 | 116.17088 | 10191 ft | 283 kts | 191° |
| 2026-05-05 04:45 | -32.11793 | 116.16560 | 10103 ft | 284 kts | 192° |
| 2026-05-05 04:45 | -32.13721 | 116.16036 | 9999 ft | 284 kts | 191° |
| 2026-05-05 04:45 | -32.15666 | 116.15508 | 9419 ft | 291 kts | 192° |
| 2026-05-05 04:45 | -32.17519 | 116.14634 | 9129 ft | 287 kts | 212° |
| 2026-05-05 04:46 | -32.18929 | 116.12998 | 8658 ft | 286 kts | 235° |
| 2026-05-05 04:46 | -32.19664 | 116.10827 | 8056 ft | 288 kts | 259° |
| 2026-05-05 04:46 | -32.19759 | 116.08503 | 7477 ft | 287 kts | 268° |
| 2026-05-05 04:46 | -32.19784 | 116.06198 | 7260 ft | 273 kts | 268° |
| 2026-05-05 04:47 | -32.19813 | 116.03992 | 6914 ft | 266 kts | 268° |
| 2026-05-05 04:47 | -32.19628 | 116.01867 | 6627 ft | 257 kts | 282° |
| 2026-05-05 04:47 | -32.19188 | 115.99833 | 6184 ft | 254 kts | 284° |
| 2026-05-05 04:47 | -32.18749 | 115.97839 | 5805 ft | 246 kts | 284° |
| 2026-05-05 04:48 | -32.18328 | 115.95916 | 5440 ft | 237 kts | 284° |
| 2026-05-05 04:48 | -32.17924 | 115.94063 | 5093 ft | 229 kts | 284° |
| 2026-05-05 04:48 | -32.17407 | 115.92323 | 4743 ft | 221 kts | 303° |
| 2026-05-05 04:48 | -32.16370 | 115.91101 | 4428 ft | 211 kts | 331° |
| 2026-05-05 04:49 | -32.15023 | 115.90593 | 4146 ft | 198 kts | 356° |
| 2026-05-05 04:49 | -32.13664 | 115.90777 | 3700 ft | 196 kts | 16° |
| 2026-05-05 04:49 | -32.12368 | 115.91159 | 3381 ft | 188 kts | 14° |
| 2026-05-05 04:49 | -32.11133 | 115.91514 | 3119 ft | 178 kts | 15° |
| 2026-05-05 04:50 | -32.09980 | 115.91849 | 2907 ft | 160 kts | 14° |
| 2026-05-05 04:50 | -32.08964 | 115.92146 | 2700 ft | 141 kts | 15° |
| 2026-05-05 04:50 | -32.08065 | 115.92408 | 2503 ft | 130 kts | 15° |
| 2026-05-05 04:50 | -32.07200 | 115.92661 | 2338 ft | 127 kts | 15° |
| 2026-05-05 04:51 | -32.06350 | 115.92909 | 2173 ft | 125 kts | 15° |
| 2026-05-05 04:51 | -32.05493 | 115.93160 | 2005 ft | 124 kts | 15° |
| 2026-05-05 04:51 | -32.04659 | 115.93404 | 1832 ft | 124 kts | 15° |
| 2026-05-05 04:51 | -32.03818 | 115.93649 | 1667 ft | 125 kts | 15° |
| 2026-05-05 04:52 | -32.02974 | 115.93896 | 1492 ft | 125 kts | 15° |
| 2026-05-05 04:52 | -32.02125 | 115.94144 | 1327 ft | 126 kts | 15° |
| 2026-05-05 04:52 | -32.01289 | 115.94388 | 1165 ft | 125 kts | 16° |
| 2026-05-05 04:52 | -32.00433 | 115.94637 | 995 ft | 125 kts | 16° |
| 2026-05-05 04:53 | -31.99586 | 115.94885 | 843 ft | 126 kts | 17° |
| 2026-05-05 04:53 | -31.98739 | 115.95132 | 686 ft | 125 kts | 17° |
| 2026-05-05 04:53 | -31.97893 | 115.95378 | 523 ft | 126 kts | 17° |
| 2026-05-05 04:53 | -31.97055 | 115.95621 | 323 ft | 127 kts | 16° |
| 2026-05-05 04:54 | -31.96205 | 115.95867 | 163 ft | 125 kts | 17° |
| 2026-05-05 04:54 | -31.95380 | 115.96113 | 66 ft | 114 kts | 15° |
| 2026-05-05 04:54 | -31.94775 | 115.96289 | 63 ft | 65 kts | 12° |
| 2026-05-05 04:54 | -31.94460 | 115.96381 | 65 ft | 37 kts | 14° |
| 2026-05-05 04:55 | -31.94196 | 115.96459 | 70 ft | 41 kts | 13° |
| 2026-05-05 04:55 | -31.93912 | 115.96540 | 69 ft | 43 kts | 14° |
| 2026-05-05 04:55 | -31.93656 | 115.96614 | 63 ft | 27 kts | 13° |
| 2026-05-05 04:55 | -31.93544 | 115.96628 | 64 ft | 14 kts | 342° |
| 2026-05-05 04:56 | -31.93494 | 115.96532 | 65 ft | 14 kts | 293° |
| 2026-05-05 04:56 | -31.93449 | 115.96419 | 65 ft | 16 kts | 295° |
| 2026-05-05 04:56 | -31.93414 | 115.96303 | 62 ft | 9 kts | 274° |
| 2026-05-05 04:56 | -31.93397 | 115.96237 | 67 ft | 9 kts | 290° |
| 2026-05-05 04:57 | -31.93381 | 115.96187 | 64 ft | 2 kts | 290° |
| 2026-05-05 04:57 | -31.93380 | 115.96183 | 63 ft | 0 kts | 290° |